sensor_id;sensor_type;location;lat;lon;timestamp;P1;durP1;ratioP1;P2;durP2;ratioP2
75316;SDS011;63913;51.492;10.368;2022-11-20T00:01:23;4.18;;;1.70;;
75316;SDS011;63913;51.492;10.368;2022-11-20T00:03:51;3.53;;;1.73;;
75316;SDS011;63913;51.492;10.368;2022-11-20T00:06:18;3.47;;;1.88;;
75316;SDS011;63913;51.492;10.368;2022-11-20T00:08:45;3.25;;;1.95;;
75316;SDS011;63913;51.492;10.368;2022-11-20T00:11:12;6.15;;;2.60;;
75316;SDS011;63913;51.492;10.368;2022-11-20T00:13:39;5.03;;;2.33;;
75316;SDS011;63913;51.492;10.368;2022-11-20T00:16:05;5.57;;;1.65;;
75316;SDS011;63913;51.492;10.368;2022-11-20T00:18:34;3.33;;;1.77;;
75316;SDS011;63913;51.492;10.368;2022-11-20T00:21:09;4.50;;;2.40;;
75316;SDS011;63913;51.492;10.368;2022-11-20T00:23:36;5.97;;;2.60;;
75316;SDS011;63913;51.492;10.368;2022-11-20T00:26:02;11.75;;;3.95;;
75316;SDS011;63913;51.492;10.368;2022-11-20T00:28:29;7.82;;;3.13;;
75316;SDS011;63913;51.492;10.368;2022-11-20T00:31:02;7.00;;;2.03;;
75316;SDS011;63913;51.492;10.368;2022-11-20T00:33:27;5.00;;;2.17;;
75316;SDS011;63913;51.492;10.368;2022-11-20T00:35:53;3.50;;;1.65;;
75316;SDS011;63913;51.492;10.368;2022-11-20T00:38:18;2.13;;;1.47;;
75316;SDS011;63913;51.492;10.368;2022-11-20T00:40:44;4.80;;;2.30;;
75316;SDS011;63913;51.492;10.368;2022-11-20T00:43:09;5.27;;;2.33;;
75316;SDS011;63913;51.492;10.368;2022-11-20T00:45:34;3.67;;;2.13;;
75316;SDS011;63913;51.492;10.368;2022-11-20T00:47:59;4.50;;;2.10;;
75316;SDS011;63913;51.492;10.368;2022-11-20T00:50:25;6.57;;;2.67;;
75316;SDS011;63913;51.492;10.368;2022-11-20T00:52:50;3.23;;;1.77;;
75316;SDS011;63913;51.492;10.368;2022-11-20T00:55:15;6.87;;;3.07;;
75316;SDS011;63913;51.492;10.368;2022-11-20T00:57:40;8.17;;;3.57;;
75316;SDS011;63913;51.492;10.368;2022-11-20T01:00:06;8.13;;;3.17;;
75316;SDS011;63913;51.492;10.368;2022-11-20T01:02:31;3.72;;;1.92;;
75316;SDS011;63913;51.492;10.368;2022-11-20T01:04:57;3.03;;;1.70;;
75316;SDS011;63913;51.492;10.368;2022-11-20T01:07:22;2.90;;;1.60;;
75316;SDS011;63913;51.492;10.368;2022-11-20T01:09:47;4.87;;;2.23;;
75316;SDS011;63913;51.492;10.368;2022-11-20T01:12:13;4.50;;;2.23;;
75316;SDS011;63913;51.492;10.368;2022-11-20T01:14:38;5.40;;;2.37;;
75316;SDS011;63913;51.492;10.368;2022-11-20T01:17:03;5.00;;;2.20;;
75316;SDS011;63913;51.492;10.368;2022-11-20T01:19:29;4.72;;;2.20;;
75316;SDS011;63913;51.492;10.368;2022-11-20T01:21:54;4.03;;;1.97;;
75316;SDS011;63913;51.492;10.368;2022-11-20T01:24:20;4.40;;;2.03;;
75316;SDS011;63913;51.492;10.368;2022-11-20T01:26:47;3.03;;;1.70;;
75316;SDS011;63913;51.492;10.368;2022-11-20T01:29:15;4.88;;;2.05;;
75316;SDS011;63913;51.492;10.368;2022-11-20T01:31:43;3.58;;;2.03;;
75316;SDS011;63913;51.492;10.368;2022-11-20T01:34:10;4.47;;;2.00;;
75316;SDS011;63913;51.492;10.368;2022-11-20T01:36:37;4.43;;;1.88;;
75316;SDS011;63913;51.492;10.368;2022-11-20T01:39:04;3.65;;;1.90;;
75316;SDS011;63913;51.492;10.368;2022-11-20T01:41:32;3.50;;;2.05;;
75316;SDS011;63913;51.492;10.368;2022-11-20T01:44:18;4.35;;;2.17;;
75316;SDS011;63913;51.492;10.368;2022-11-20T01:49:22;3.08;;;1.63;;
75316;SDS011;63913;51.492;10.368;2022-11-20T01:52:01;5.53;;;2.28;;
75316;SDS011;63913;51.492;10.368;2022-11-20T01:54:37;7.03;;;2.38;;
75316;SDS011;63913;51.492;10.368;2022-11-20T01:57:24;4.53;;;1.95;;
75316;SDS011;63913;51.492;10.368;2022-11-20T01:59:54;2.95;;;1.80;;
75316;SDS011;63913;51.492;10.368;2022-11-20T02:02:24;3.10;;;1.92;;
75316;SDS011;63913;51.492;10.368;2022-11-20T02:04:50;4.32;;;2.03;;
75316;SDS011;63913;51.492;10.368;2022-11-20T02:07:20;3.85;;;1.80;;
75316;SDS011;63913;51.492;10.368;2022-11-20T02:09:47;7.47;;;2.55;;
75316;SDS011;63913;51.492;10.368;2022-11-20T02:12:12;5.40;;;2.20;;
75316;SDS011;63913;51.492;10.368;2022-11-20T02:14:57;5.20;;;2.15;;
75316;SDS011;63913;51.492;10.368;2022-11-20T02:17:23;3.08;;;1.83;;
75316;SDS011;63913;51.492;10.368;2022-11-20T02:19:49;4.22;;;2.13;;
75316;SDS011;63913;51.492;10.368;2022-11-20T02:22:17;4.35;;;1.77;;
75316;SDS011;63913;51.492;10.368;2022-11-20T02:24:47;4.25;;;1.75;;
75316;SDS011;63913;51.492;10.368;2022-11-20T02:27:15;5.43;;;2.30;;
75316;SDS011;63913;51.492;10.368;2022-11-20T02:29:50;4.47;;;2.13;;
75316;SDS011;63913;51.492;10.368;2022-11-20T02:32:25;4.50;;;1.85;;
75316;SDS011;63913;51.492;10.368;2022-11-20T02:34:58;3.40;;;1.77;;
75316;SDS011;63913;51.492;10.368;2022-11-20T02:37:33;2.38;;;1.65;;
75316;SDS011;63913;51.492;10.368;2022-11-20T02:40:01;4.20;;;1.85;;
75316;SDS011;63913;51.492;10.368;2022-11-20T02:42:26;4.03;;;2.00;;
75316;SDS011;63913;51.492;10.368;2022-11-20T02:44:51;4.80;;;2.13;;
75316;SDS011;63913;51.492;10.368;2022-11-20T02:47:17;3.93;;;1.73;;
75316;SDS011;63913;51.492;10.368;2022-11-20T02:49:42;4.30;;;2.10;;
75316;SDS011;63913;51.492;10.368;2022-11-20T02:52:07;3.13;;;1.60;;
75316;SDS011;63913;51.492;10.368;2022-11-20T02:54:33;3.10;;;1.73;;
75316;SDS011;63913;51.492;10.368;2022-11-20T02:56:58;5.37;;;2.20;;
75316;SDS011;63913;51.492;10.368;2022-11-20T02:59:23;4.60;;;1.80;;
75316;SDS011;63913;51.492;10.368;2022-11-20T03:01:49;4.53;;;1.80;;
75316;SDS011;63913;51.492;10.368;2022-11-20T03:04:14;3.50;;;1.65;;
75316;SDS011;63913;51.492;10.368;2022-11-20T03:06:39;4.88;;;1.75;;
75316;SDS011;63913;51.492;10.368;2022-11-20T03:09:05;3.60;;;1.70;;
75316;SDS011;63913;51.492;10.368;2022-11-20T03:11:30;6.68;;;1.88;;
75316;SDS011;63913;51.492;10.368;2022-11-20T03:13:55;5.53;;;1.90;;
75316;SDS011;63913;51.492;10.368;2022-11-20T03:16:21;4.28;;;1.98;;
75316;SDS011;63913;51.492;10.368;2022-11-20T03:18:48;2.47;;;1.58;;
75316;SDS011;63913;51.492;10.368;2022-11-20T03:21:14;4.40;;;1.80;;
75316;SDS011;63913;51.492;10.368;2022-11-20T03:23:41;4.32;;;1.70;;
75316;SDS011;63913;51.492;10.368;2022-11-20T03:26:07;4.43;;;1.80;;
75316;SDS011;63913;51.492;10.368;2022-11-20T03:28:33;3.42;;;1.67;;
75316;SDS011;63913;51.492;10.368;2022-11-20T03:30:58;4.00;;;2.03;;
75316;SDS011;63913;51.492;10.368;2022-11-20T03:33:30;4.40;;;2.10;;
75316;SDS011;63913;51.492;10.368;2022-11-20T03:35:58;5.17;;;2.00;;
75316;SDS011;63913;51.492;10.368;2022-11-20T03:38:28;3.95;;;1.58;;
75316;SDS011;63913;51.492;10.368;2022-11-20T03:40:57;4.40;;;1.67;;
75316;SDS011;63913;51.492;10.368;2022-11-20T03:43:24;3.47;;;1.42;;
75316;SDS011;63913;51.492;10.368;2022-11-20T03:45:49;3.70;;;1.93;;
75316;SDS011;63913;51.492;10.368;2022-11-20T03:48:15;4.67;;;1.90;;
75316;SDS011;63913;51.492;10.368;2022-11-20T03:50:40;4.13;;;1.77;;
75316;SDS011;63913;51.492;10.368;2022-11-20T03:53:05;5.63;;;2.03;;
75316;SDS011;63913;51.492;10.368;2022-11-20T03:55:31;3.90;;;1.70;;
75316;SDS011;63913;51.492;10.368;2022-11-20T03:57:56;5.60;;;2.00;;
75316;SDS011;63913;51.492;10.368;2022-11-20T04:00:21;5.22;;;2.20;;
75316;SDS011;63913;51.492;10.368;2022-11-20T04:02:46;5.00;;;1.77;;
75316;SDS011;63913;51.492;10.368;2022-11-20T04:05:12;7.53;;;1.65;;
75316;SDS011;63913;51.492;10.368;2022-11-20T04:07:37;4.43;;;1.90;;
75316;SDS011;63913;51.492;10.368;2022-11-20T04:10:03;3.13;;;1.77;;
75316;SDS011;63913;51.492;10.368;2022-11-20T04:12:31;4.03;;;1.77;;
75316;SDS011;63913;51.492;10.368;2022-11-20T04:14:57;4.35;;;2.00;;
75316;SDS011;63913;51.492;10.368;2022-11-20T04:17:22;4.87;;;1.97;;
75316;SDS011;63913;51.492;10.368;2022-11-20T04:19:47;4.40;;;2.13;;
75316;SDS011;63913;51.492;10.368;2022-11-20T04:22:13;6.37;;;2.10;;
75316;SDS011;63913;51.492;10.368;2022-11-20T04:24:38;4.17;;;2.00;;
75316;SDS011;63913;51.492;10.368;2022-11-20T04:27:03;6.50;;;2.27;;
75316;SDS011;63913;51.492;10.368;2022-11-20T04:29:29;5.07;;;2.10;;
75316;SDS011;63913;51.492;10.368;2022-11-20T04:31:54;6.77;;;2.37;;
75316;SDS011;63913;51.492;10.368;2022-11-20T04:34:19;4.80;;;2.17;;
75316;SDS011;63913;51.492;10.368;2022-11-20T04:36:45;4.65;;;2.22;;
75316;SDS011;63913;51.492;10.368;2022-11-20T04:39:14;7.63;;;2.55;;
75316;SDS011;63913;51.492;10.368;2022-11-20T04:41:40;3.85;;;2.03;;
75316;SDS011;63913;51.492;10.368;2022-11-20T04:44:06;5.43;;;2.38;;
75316;SDS011;63913;51.492;10.368;2022-11-20T04:46:35;6.10;;;2.50;;
75316;SDS011;63913;51.492;10.368;2022-11-20T04:49:02;5.20;;;1.77;;
75316;SDS011;63913;51.492;10.368;2022-11-20T04:51:28;6.53;;;2.47;;
75316;SDS011;63913;51.492;10.368;2022-11-20T04:53:54;7.78;;;2.63;;
75316;SDS011;63913;51.492;10.368;2022-11-20T04:56:19;7.50;;;2.72;;
75316;SDS011;63913;51.492;10.368;2022-11-20T04:58:45;6.57;;;2.63;;
75316;SDS011;63913;51.492;10.368;2022-11-20T05:01:11;5.90;;;2.27;;
75316;SDS011;63913;51.492;10.368;2022-11-20T05:03:38;6.85;;;2.55;;
75316;SDS011;63913;51.492;10.368;2022-11-20T05:06:05;3.85;;;1.98;;
75316;SDS011;63913;51.492;10.368;2022-11-20T05:08:31;5.13;;;2.47;;
75316;SDS011;63913;51.492;10.368;2022-11-20T05:11:01;7.55;;;2.55;;
75316;SDS011;63913;51.492;10.368;2022-11-20T05:13:31;8.50;;;2.83;;
75316;SDS011;63913;51.492;10.368;2022-11-20T05:16:03;5.95;;;2.42;;
75316;SDS011;63913;51.492;10.368;2022-11-20T05:18:30;8.25;;;2.83;;
75316;SDS011;63913;51.492;10.368;2022-11-20T05:20:56;7.22;;;2.75;;
75316;SDS011;63913;51.492;10.368;2022-11-20T05:23:22;6.13;;;2.20;;
75316;SDS011;63913;51.492;10.368;2022-11-20T05:25:51;10.40;;;2.95;;
75316;SDS011;63913;51.492;10.368;2022-11-20T05:28:17;7.05;;;2.60;;
75316;SDS011;63913;51.492;10.368;2022-11-20T05:30:45;6.60;;;2.40;;
75316;SDS011;63913;51.492;10.368;2022-11-20T05:33:10;4.72;;;2.40;;
75316;SDS011;63913;51.492;10.368;2022-11-20T05:35:35;6.33;;;2.90;;
75316;SDS011;63913;51.492;10.368;2022-11-20T05:38:01;6.37;;;2.30;;
75316;SDS011;63913;51.492;10.368;2022-11-20T05:40:26;6.63;;;2.53;;
75316;SDS011;63913;51.492;10.368;2022-11-20T05:42:51;6.23;;;3.23;;
75316;SDS011;63913;51.492;10.368;2022-11-20T05:45:17;8.77;;;2.53;;
75316;SDS011;63913;51.492;10.368;2022-11-20T05:47:42;7.93;;;2.20;;
75316;SDS011;63913;51.492;10.368;2022-11-20T05:50:07;7.93;;;2.67;;
75316;SDS011;63913;51.492;10.368;2022-11-20T05:52:33;6.80;;;2.78;;
75316;SDS011;63913;51.492;10.368;2022-11-20T05:54:58;6.00;;;2.30;;
75316;SDS011;63913;51.492;10.368;2022-11-20T05:57:23;6.53;;;2.57;;
75316;SDS011;63913;51.492;10.368;2022-11-20T05:59:48;5.30;;;2.40;;
75316;SDS011;63913;51.492;10.368;2022-11-20T06:02:14;4.93;;;2.30;;
75316;SDS011;63913;51.492;10.368;2022-11-20T06:04:39;8.00;;;3.47;;
75316;SDS011;63913;51.492;10.368;2022-11-20T06:07:05;8.43;;;2.43;;
75316;SDS011;63913;51.492;10.368;2022-11-20T06:09:38;8.25;;;3.25;;
75316;SDS011;63913;51.492;10.368;2022-11-20T06:12:04;7.90;;;2.83;;
75316;SDS011;63913;51.492;10.368;2022-11-20T06:14:29;10.05;;;3.05;;
75316;SDS011;63913;51.492;10.368;2022-11-20T06:16:55;9.03;;;3.20;;
75316;SDS011;63913;51.492;10.368;2022-11-20T06:19:20;13.18;;;2.95;;
75316;SDS011;63913;51.492;10.368;2022-11-20T06:21:47;5.82;;;2.47;;
75316;SDS011;63913;51.492;10.368;2022-11-20T06:24:13;10.68;;;3.20;;
75316;SDS011;63913;51.492;10.368;2022-11-20T06:26:38;6.77;;;2.70;;
75316;SDS011;63913;51.492;10.368;2022-11-20T06:29:03;9.13;;;2.92;;
75316;SDS011;63913;51.492;10.368;2022-11-20T06:31:29;8.77;;;2.77;;
75316;SDS011;63913;51.492;10.368;2022-11-20T06:33:54;7.63;;;2.88;;
75316;SDS011;63913;51.492;10.368;2022-11-20T06:36:21;4.90;;;2.22;;
75316;SDS011;63913;51.492;10.368;2022-11-20T06:38:47;6.40;;;2.47;;
75316;SDS011;63913;51.492;10.368;2022-11-20T06:41:14;7.15;;;2.92;;
75316;SDS011;63913;51.492;10.368;2022-11-20T06:43:41;6.53;;;2.35;;
75316;SDS011;63913;51.492;10.368;2022-11-20T06:46:08;10.80;;;3.03;;
75316;SDS011;63913;51.492;10.368;2022-11-20T06:48:34;8.57;;;2.75;;
75316;SDS011;63913;51.492;10.368;2022-11-20T06:50:59;8.00;;;2.80;;
75316;SDS011;63913;51.492;10.368;2022-11-20T06:53:28;8.85;;;2.97;;
75316;SDS011;63913;51.492;10.368;2022-11-20T06:55:55;5.97;;;2.63;;
75316;SDS011;63913;51.492;10.368;2022-11-20T06:58:21;6.47;;;2.65;;
75316;SDS011;63913;51.492;10.368;2022-11-20T07:00:46;7.00;;;2.57;;
75316;SDS011;63913;51.492;10.368;2022-11-20T07:03:12;8.93;;;3.13;;
75316;SDS011;63913;51.492;10.368;2022-11-20T07:05:37;7.70;;;2.65;;
75316;SDS011;63913;51.492;10.368;2022-11-20T07:08:03;5.70;;;2.60;;
75316;SDS011;63913;51.492;10.368;2022-11-20T07:10:30;7.10;;;2.88;;
75316;SDS011;63913;51.492;10.368;2022-11-20T07:12:56;6.55;;;2.72;;
75316;SDS011;63913;51.492;10.368;2022-11-20T07:15:22;10.13;;;3.27;;
75316;SDS011;63913;51.492;10.368;2022-11-20T07:17:48;11.45;;;3.20;;
75316;SDS011;63913;51.492;10.368;2022-11-20T07:20:14;8.38;;;2.95;;
75316;SDS011;63913;51.492;10.368;2022-11-20T07:22:40;9.45;;;3.20;;
75316;SDS011;63913;51.492;10.368;2022-11-20T07:25:06;10.75;;;3.97;;
75316;SDS011;63913;51.492;10.368;2022-11-20T07:27:33;9.65;;;3.15;;
75316;SDS011;63913;51.492;10.368;2022-11-20T07:29:59;7.70;;;2.83;;
75316;SDS011;63913;51.492;10.368;2022-11-20T07:32:25;8.25;;;3.58;;
75316;SDS011;63913;51.492;10.368;2022-11-20T07:34:50;9.38;;;3.83;;
75316;SDS011;63913;51.492;10.368;2022-11-20T07:37:16;8.38;;;2.83;;
75316;SDS011;63913;51.492;10.368;2022-11-20T07:39:42;7.00;;;3.33;;
75316;SDS011;63913;51.492;10.368;2022-11-20T07:42:07;8.95;;;3.00;;
75316;SDS011;63913;51.492;10.368;2022-11-20T07:44:33;11.02;;;3.83;;
75316;SDS011;63913;51.492;10.368;2022-11-20T07:46:59;7.07;;;3.28;;
75316;SDS011;63913;51.492;10.368;2022-11-20T07:49:24;9.20;;;3.47;;
75316;SDS011;63913;51.492;10.368;2022-11-20T07:51:50;7.83;;;3.10;;
75316;SDS011;63913;51.492;10.368;2022-11-20T07:54:18;8.98;;;3.25;;
75316;SDS011;63913;51.492;10.368;2022-11-20T07:56:43;10.32;;;3.25;;
75316;SDS011;63913;51.492;10.368;2022-11-20T07:59:08;20.03;;;5.67;;
75316;SDS011;63913;51.492;10.368;2022-11-20T08:01:36;36.35;;;11.55;;
75316;SDS011;63913;51.492;10.368;2022-11-20T08:04:02;26.88;;;8.82;;
75316;SDS011;63913;51.492;10.368;2022-11-20T08:06:27;32.53;;;10.47;;
75316;SDS011;63913;51.492;10.368;2022-11-20T08:08:52;26.60;;;9.20;;
75316;SDS011;63913;51.492;10.368;2022-11-20T08:11:18;25.27;;;7.65;;
75316;SDS011;63913;51.492;10.368;2022-11-20T08:14:01;24.88;;;8.98;;
75316;SDS011;63913;51.492;10.368;2022-11-20T08:16:39;27.95;;;9.95;;
75316;SDS011;63913;51.492;10.368;2022-11-20T08:19:05;33.75;;;11.73;;
75316;SDS011;63913;51.492;10.368;2022-11-20T08:21:31;36.33;;;12.00;;
75316;SDS011;63913;51.492;10.368;2022-11-20T08:23:57;37.33;;;13.47;;
75316;SDS011;63913;51.492;10.368;2022-11-20T08:26:23;35.75;;;13.77;;
75316;SDS011;63913;51.492;10.368;2022-11-20T08:28:49;29.80;;;10.52;;
75316;SDS011;63913;51.492;10.368;2022-11-20T08:31:17;20.00;;;6.82;;
75316;SDS011;63913;51.492;10.368;2022-11-20T08:33:43;19.47;;;8.00;;
75316;SDS011;63913;51.492;10.368;2022-11-20T08:36:11;14.63;;;5.70;;
75316;SDS011;63913;51.492;10.368;2022-11-20T08:38:37;13.30;;;4.85;;
75316;SDS011;63913;51.492;10.368;2022-11-20T08:41:03;13.57;;;4.97;;
75316;SDS011;63913;51.492;10.368;2022-11-20T08:43:49;16.98;;;5.82;;
75316;SDS011;63913;51.492;10.368;2022-11-20T08:46:15;12.60;;;4.82;;
75316;SDS011;63913;51.492;10.368;2022-11-20T08:48:41;12.40;;;4.15;;
75316;SDS011;63913;51.492;10.368;2022-11-20T08:51:06;12.17;;;4.20;;
75316;SDS011;63913;51.492;10.368;2022-11-20T08:53:31;9.27;;;3.70;;
75316;SDS011;63913;51.492;10.368;2022-11-20T08:55:57;7.77;;;2.73;;
75316;SDS011;63913;51.492;10.368;2022-11-20T08:58:23;10.07;;;3.53;;
75316;SDS011;63913;51.492;10.368;2022-11-20T09:00:48;10.20;;;3.63;;
75316;SDS011;63913;51.492;10.368;2022-11-20T09:03:14;8.57;;;3.43;;
75316;SDS011;63913;51.492;10.368;2022-11-20T09:05:39;11.18;;;3.03;;
75316;SDS011;63913;51.492;10.368;2022-11-20T09:08:04;9.85;;;3.40;;
75316;SDS011;63913;51.492;10.368;2022-11-20T09:10:30;10.33;;;4.20;;
75316;SDS011;63913;51.492;10.368;2022-11-20T09:12:55;7.72;;;3.33;;
75316;SDS011;63913;51.492;10.368;2022-11-20T09:15:21;9.15;;;3.33;;
75316;SDS011;63913;51.492;10.368;2022-11-20T09:17:54;9.52;;;2.67;;
75316;SDS011;63913;51.492;10.368;2022-11-20T09:20:21;7.50;;;2.92;;
75316;SDS011;63913;51.492;10.368;2022-11-20T09:22:49;10.85;;;3.50;;
75316;SDS011;63913;51.492;10.368;2022-11-20T09:25:14;10.15;;;3.72;;
75316;SDS011;63913;51.492;10.368;2022-11-20T09:27:40;10.73;;;3.58;;
75316;SDS011;63913;51.492;10.368;2022-11-20T09:30:10;13.90;;;4.50;;
75316;SDS011;63913;51.492;10.368;2022-11-20T09:32:38;8.50;;;3.30;;
75316;SDS011;63913;51.492;10.368;2022-11-20T09:35:04;12.23;;;3.97;;
75316;SDS011;63913;51.492;10.368;2022-11-20T09:37:30;9.05;;;3.20;;
75316;SDS011;63913;51.492;10.368;2022-11-20T09:39:55;12.90;;;4.03;;
75316;SDS011;63913;51.492;10.368;2022-11-20T09:42:37;11.90;;;3.90;;
75316;SDS011;63913;51.492;10.368;2022-11-20T09:47:58;12.13;;;4.22;;
75316;SDS011;63913;51.492;10.368;2022-11-20T09:54:07;8.93;;;3.28;;
75316;SDS011;63913;51.492;10.368;2022-11-20T09:56:42;9.35;;;3.83;;
75316;SDS011;63913;51.492;10.368;2022-11-20T09:59:18;8.93;;;3.22;;
75316;SDS011;63913;51.492;10.368;2022-11-20T10:02:00;8.95;;;3.25;;
75316;SDS011;63913;51.492;10.368;2022-11-20T10:07:11;12.73;;;3.72;;
75316;SDS011;63913;51.492;10.368;2022-11-20T10:18:14;9.23;;;3.38;;
75316;SDS011;63913;51.492;10.368;2022-11-20T10:20:43;10.73;;;3.95;;
75316;SDS011;63913;51.492;10.368;2022-11-20T10:26:03;13.52;;;4.68;;
75316;SDS011;63913;51.492;10.368;2022-11-20T10:28:46;11.95;;;4.72;;
75316;SDS011;63913;51.492;10.368;2022-11-20T10:31:32;14.20;;;5.20;;
75316;SDS011;63913;51.492;10.368;2022-11-20T10:34:03;12.80;;;4.70;;
75316;SDS011;63913;51.492;10.368;2022-11-20T10:36:38;10.15;;;4.40;;
75316;SDS011;63913;51.492;10.368;2022-11-20T10:39:24;15.45;;;5.38;;
75316;SDS011;63913;51.492;10.368;2022-11-20T10:41:55;20.67;;;6.55;;
75316;SDS011;63913;51.492;10.368;2022-11-20T10:44:22;16.02;;;5.45;;
75316;SDS011;63913;51.492;10.368;2022-11-20T10:47:16;14.52;;;5.13;;
75316;SDS011;63913;51.492;10.368;2022-11-20T10:49:43;17.13;;;6.25;;
75316;SDS011;63913;51.492;10.368;2022-11-20T11:00:11;23.45;;;6.78;;
75316;SDS011;63913;51.492;10.368;2022-11-20T11:02:43;27.85;;;8.07;;
75316;SDS011;63913;51.492;10.368;2022-11-20T11:07:50;16.13;;;6.05;;
75316;SDS011;63913;51.492;10.368;2022-11-20T11:10:18;15.43;;;6.05;;
75316;SDS011;63913;51.492;10.368;2022-11-20T11:12:49;14.25;;;5.30;;
75316;SDS011;63913;51.492;10.368;2022-11-20T11:15:37;14.20;;;4.90;;
75316;SDS011;63913;51.492;10.368;2022-11-20T11:18:04;15.80;;;5.43;;
75316;SDS011;63913;51.492;10.368;2022-11-20T11:20:33;19.60;;;6.80;;
75316;SDS011;63913;51.492;10.368;2022-11-20T11:22:59;12.60;;;4.77;;
75316;SDS011;63913;51.492;10.368;2022-11-20T11:27:58;11.95;;;4.53;;
75316;SDS011;63913;51.492;10.368;2022-11-20T11:30:29;10.18;;;4.00;;
75316;SDS011;63913;51.492;10.368;2022-11-20T11:33:06;10.32;;;4.35;;
75316;SDS011;63913;51.492;10.368;2022-11-20T11:35:38;13.30;;;4.43;;
75316;SDS011;63913;51.492;10.368;2022-11-20T11:38:14;10.73;;;3.90;;
75316;SDS011;63913;51.492;10.368;2022-11-20T11:40:43;8.70;;;4.07;;
75316;SDS011;63913;51.492;10.368;2022-11-20T11:43:18;13.70;;;5.28;;
75316;SDS011;63913;51.492;10.368;2022-11-20T11:46:21;10.20;;;4.90;;
75316;SDS011;63913;51.492;10.368;2022-11-20T11:48:55;8.98;;;3.90;;
75316;SDS011;63913;51.492;10.368;2022-11-20T11:51:21;11.68;;;4.65;;
75316;SDS011;63913;51.492;10.368;2022-11-20T11:53:47;10.70;;;4.68;;
75316;SDS011;63913;51.492;10.368;2022-11-20T11:56:12;12.57;;;4.73;;
75316;SDS011;63913;51.492;10.368;2022-11-20T11:58:51;10.68;;;3.92;;
75316;SDS011;63913;51.492;10.368;2022-11-20T12:04:07;8.02;;;3.47;;
75316;SDS011;63913;51.492;10.368;2022-11-20T12:07:00;9.15;;;4.10;;
75316;SDS011;63913;51.492;10.368;2022-11-20T12:09:34;9.27;;;4.28;;
75316;SDS011;63913;51.492;10.368;2022-11-20T12:12:05;9.40;;;3.75;;
75316;SDS011;63913;51.492;10.368;2022-11-20T12:14:36;13.75;;;4.43;;
75316;SDS011;63913;51.492;10.368;2022-11-20T12:17:04;10.48;;;3.95;;
75316;SDS011;63913;51.492;10.368;2022-11-20T12:19:30;12.27;;;4.32;;
75316;SDS011;63913;51.492;10.368;2022-11-20T12:24:49;9.20;;;4.10;;
75316;SDS011;63913;51.492;10.368;2022-11-20T12:30:21;11.60;;;4.80;;
75316;SDS011;63913;51.492;10.368;2022-11-20T12:54:19;8.50;;;3.33;;
75316;SDS011;63913;51.492;10.368;2022-11-20T12:57:33;8.52;;;3.35;;
75316;SDS011;63913;51.492;10.368;2022-11-20T13:14:00;12.32;;;4.90;;
75316;SDS011;63913;51.492;10.368;2022-11-20T13:16:49;11.32;;;4.32;;
75316;SDS011;63913;51.492;10.368;2022-11-20T13:19:19;10.05;;;4.45;;
75316;SDS011;63913;51.492;10.368;2022-11-20T13:21:46;10.98;;;4.75;;
75316;SDS011;63913;51.492;10.368;2022-11-20T13:24:25;9.90;;;4.47;;
75316;SDS011;63913;51.492;10.368;2022-11-20T13:29:37;14.65;;;4.95;;
75316;SDS011;63913;51.492;10.368;2022-11-20T13:32:14;9.85;;;4.50;;
75316;SDS011;63913;51.492;10.368;2022-11-20T13:34:55;12.32;;;5.20;;
75316;SDS011;63913;51.492;10.368;2022-11-20T13:37:32;9.90;;;4.60;;
75316;SDS011;63913;51.492;10.368;2022-11-20T13:42:35;13.73;;;5.63;;
75316;SDS011;63913;51.492;10.368;2022-11-20T13:45:08;11.02;;;4.63;;
75316;SDS011;63913;51.492;10.368;2022-11-20T13:47:35;12.20;;;4.63;;
75316;SDS011;63913;51.492;10.368;2022-11-20T13:50:03;14.75;;;5.18;;
75316;SDS011;63913;51.492;10.368;2022-11-20T13:52:39;15.82;;;5.88;;
75316;SDS011;63913;51.492;10.368;2022-11-20T13:55:23;12.32;;;5.30;;
75316;SDS011;63913;51.492;10.368;2022-11-20T13:58:20;12.65;;;5.50;;
75316;SDS011;63913;51.492;10.368;2022-11-20T14:00:58;14.32;;;5.90;;
75316;SDS011;63913;51.492;10.368;2022-11-20T14:03:28;16.95;;;7.20;;
75316;SDS011;63913;51.492;10.368;2022-11-20T14:06:02;14.20;;;6.43;;
75316;SDS011;63913;51.492;10.368;2022-11-20T14:08:33;12.40;;;5.05;;
75316;SDS011;63913;51.492;10.368;2022-11-20T14:11:16;10.23;;;4.65;;
75316;SDS011;63913;51.492;10.368;2022-11-20T14:16:21;11.25;;;5.47;;
75316;SDS011;63913;51.492;10.368;2022-11-20T14:18:47;9.38;;;4.72;;
75316;SDS011;63913;51.492;10.368;2022-11-20T14:21:20;7.40;;;4.13;;
75316;SDS011;63913;51.492;10.368;2022-11-20T14:23:47;11.30;;;5.28;;
75316;SDS011;63913;51.492;10.368;2022-11-20T14:26:13;10.10;;;4.70;;
75316;SDS011;63913;51.492;10.368;2022-11-20T14:31:17;12.80;;;5.07;;
75316;SDS011;63913;51.492;10.368;2022-11-20T14:33:48;9.75;;;4.32;;
75316;SDS011;63913;51.492;10.368;2022-11-20T14:36:17;9.77;;;5.05;;
75316;SDS011;63913;51.492;10.368;2022-11-20T14:38:44;9.05;;;4.05;;
75316;SDS011;63913;51.492;10.368;2022-11-20T14:41:16;9.38;;;3.67;;
75316;SDS011;63913;51.492;10.368;2022-11-20T14:43:55;5.53;;;3.00;;
75316;SDS011;63913;51.492;10.368;2022-11-20T14:46:22;6.57;;;2.72;;
75316;SDS011;63913;51.492;10.368;2022-11-20T14:48:53;6.53;;;2.80;;
75316;SDS011;63913;51.492;10.368;2022-11-20T14:51:28;6.47;;;2.63;;
75316;SDS011;63913;51.492;10.368;2022-11-20T14:53:56;6.50;;;2.90;;
75316;SDS011;63913;51.492;10.368;2022-11-20T14:56:22;5.30;;;2.53;;
75316;SDS011;63913;51.492;10.368;2022-11-20T14:58:56;7.07;;;2.67;;
75316;SDS011;63913;51.492;10.368;2022-11-20T15:01:27;5.97;;;2.60;;
75316;SDS011;63913;51.492;10.368;2022-11-20T15:03:59;6.63;;;3.10;;
75316;SDS011;63913;51.492;10.368;2022-11-20T15:06:25;5.95;;;2.85;;
75316;SDS011;63913;51.492;10.368;2022-11-20T15:08:52;7.45;;;3.05;;
75316;SDS011;63913;51.492;10.368;2022-11-20T15:11:18;5.45;;;2.50;;
75316;SDS011;63913;51.492;10.368;2022-11-20T15:13:51;10.95;;;4.82;;
75316;SDS011;63913;51.492;10.368;2022-11-20T15:16:20;15.35;;;5.30;;
75316;SDS011;63913;51.492;10.368;2022-11-20T15:18:47;8.23;;;2.97;;
75316;SDS011;63913;51.492;10.368;2022-11-20T15:21:13;7.13;;;2.90;;
75316;SDS011;63913;51.492;10.368;2022-11-20T15:23:40;7.80;;;2.95;;
75316;SDS011;63913;51.492;10.368;2022-11-20T15:26:06;7.50;;;3.28;;
75316;SDS011;63913;51.492;10.368;2022-11-20T15:31:02;7.32;;;3.15;;
75316;SDS011;63913;51.492;10.368;2022-11-20T15:33:28;7.40;;;3.22;;
75316;SDS011;63913;51.492;10.368;2022-11-20T15:35:54;9.85;;;3.85;;
75316;SDS011;63913;51.492;10.368;2022-11-20T15:38:19;7.60;;;3.22;;
75316;SDS011;63913;51.492;10.368;2022-11-20T15:40:44;4.93;;;2.20;;
75316;SDS011;63913;51.492;10.368;2022-11-20T15:43:10;9.17;;;3.23;;
75316;SDS011;63913;51.492;10.368;2022-11-20T15:48:27;7.30;;;2.90;;
75316;SDS011;63913;51.492;10.368;2022-11-20T15:53:39;6.93;;;2.35;;
75316;SDS011;63913;51.492;10.368;2022-11-20T15:56:08;5.53;;;2.40;;
75316;SDS011;63913;51.492;10.368;2022-11-20T15:58:36;5.80;;;2.55;;
75316;SDS011;63913;51.492;10.368;2022-11-20T16:01:02;6.70;;;2.95;;
75316;SDS011;63913;51.492;10.368;2022-11-20T16:03:27;10.10;;;3.20;;
75316;SDS011;63913;51.492;10.368;2022-11-20T16:05:52;4.03;;;2.10;;
75316;SDS011;63913;51.492;10.368;2022-11-20T16:08:18;6.50;;;2.60;;
75316;SDS011;63913;51.492;10.368;2022-11-20T16:10:43;7.78;;;3.58;;
75316;SDS011;63913;51.492;10.368;2022-11-20T16:13:12;8.68;;;3.00;;
75316;SDS011;63913;51.492;10.368;2022-11-20T16:15:59;6.45;;;2.83;;
75316;SDS011;63913;51.492;10.368;2022-11-20T16:18:26;4.78;;;2.65;;